sensor_id;sensor_type;location;lat;lon;timestamp;P1;durP1;ratioP1;P2;durP2;ratioP2
44068;SDS011;29738;51.234;5.484;2022-09-12T00:00:00;19.02;;;10.90;;
44068;SDS011;29738;51.234;5.484;2022-09-12T00:02:26;21.73;;;9.80;;
44068;SDS011;29738;51.234;5.484;2022-09-12T00:04:51;16.73;;;8.65;;
44068;SDS011;29738;51.234;5.484;2022-09-12T00:07:17;17.52;;;8.45;;
44068;SDS011;29738;51.234;5.484;2022-09-12T00:09:43;16.92;;;8.85;;
44068;SDS011;29738;51.234;5.484;2022-09-12T00:12:09;13.80;;;7.07;;
44068;SDS011;29738;51.234;5.484;2022-09-12T00:14:34;17.25;;;9.15;;
44068;SDS011;29738;51.234;5.484;2022-09-12T00:17:00;19.85;;;10.20;;
44068;SDS011;29738;51.234;5.484;2022-09-12T00:19:26;17.05;;;8.80;;
44068;SDS011;29738;51.234;5.484;2022-09-12T00:21:53;16.98;;;8.55;;
44068;SDS011;29738;51.234;5.484;2022-09-12T00:24:19;16.83;;;8.45;;
44068;SDS011;29738;51.234;5.484;2022-09-12T00:26:45;17.17;;;8.13;;
44068;SDS011;29738;51.234;5.484;2022-09-12T00:29:15;19.23;;;7.95;;
44068;SDS011;29738;51.234;5.484;2022-09-12T00:31:43;13.07;;;7.00;;
44068;SDS011;29738;51.234;5.484;2022-09-12T00:34:09;15.15;;;7.72;;
44068;SDS011;29738;51.234;5.484;2022-09-12T00:36:35;13.65;;;7.63;;
44068;SDS011;29738;51.234;5.484;2022-09-12T00:39:03;18.38;;;9.52;;
44068;SDS011;29738;51.234;5.484;2022-09-12T00:41:30;20.23;;;10.02;;
44068;SDS011;29738;51.234;5.484;2022-09-12T00:43:58;17.48;;;8.90;;
44068;SDS011;29738;51.234;5.484;2022-09-12T00:49:14;16.10;;;7.97;;
44068;SDS011;29738;51.234;5.484;2022-09-12T00:51:42;14.20;;;7.13;;
44068;SDS011;29738;51.234;5.484;2022-09-12T00:54:13;16.65;;;8.82;;
44068;SDS011;29738;51.234;5.484;2022-09-12T00:56:45;14.38;;;7.72;;
44068;SDS011;29738;51.234;5.484;2022-09-12T00:59:16;15.82;;;9.10;;
44068;SDS011;29738;51.234;5.484;2022-09-12T01:01:48;19.08;;;9.30;;
44068;SDS011;29738;51.234;5.484;2022-09-12T01:04:17;18.88;;;10.60;;
44068;SDS011;29738;51.234;5.484;2022-09-12T01:06:45;16.98;;;8.00;;
44068;SDS011;29738;51.234;5.484;2022-09-12T01:09:18;18.67;;;9.50;;
44068;SDS011;29738;51.234;5.484;2022-09-12T01:11:46;18.77;;;8.63;;
44068;SDS011;29738;51.234;5.484;2022-09-12T01:14:14;15.82;;;8.43;;
44068;SDS011;29738;51.234;5.484;2022-09-12T01:16:41;13.40;;;7.03;;
44068;SDS011;29738;51.234;5.484;2022-09-12T01:19:24;16.60;;;7.53;;
44068;SDS011;29738;51.234;5.484;2022-09-12T01:25:03;16.85;;;8.23;;
44068;SDS011;29738;51.234;5.484;2022-09-12T01:38:58;18.65;;;9.25;;
44068;SDS011;29738;51.234;5.484;2022-09-12T01:44:27;14.75;;;8.05;;
44068;SDS011;29738;51.234;5.484;2022-09-12T01:50:17;16.10;;;7.30;;
44068;SDS011;29738;51.234;5.484;2022-09-12T02:00:33;17.83;;;8.95;;
44068;SDS011;29738;51.234;5.484;2022-09-12T02:03:08;17.08;;;8.77;;
44068;SDS011;29738;51.234;5.484;2022-09-12T02:05:39;20.38;;;8.57;;
44068;SDS011;29738;51.234;5.484;2022-09-12T02:08:13;18.52;;;9.02;;
44068;SDS011;29738;51.234;5.484;2022-09-12T02:10:46;18.10;;;8.80;;
44068;SDS011;29738;51.234;5.484;2022-09-12T02:13:21;18.05;;;8.15;;
44068;SDS011;29738;51.234;5.484;2022-09-12T02:15:58;18.48;;;9.10;;
44068;SDS011;29738;51.234;5.484;2022-09-12T02:18:31;15.05;;;7.20;;
44068;SDS011;29738;51.234;5.484;2022-09-12T02:21:01;16.65;;;8.50;;
44068;SDS011;29738;51.234;5.484;2022-09-12T02:23:30;15.07;;;7.50;;
44068;SDS011;29738;51.234;5.484;2022-09-12T02:26:02;14.75;;;7.78;;
44068;SDS011;29738;51.234;5.484;2022-09-12T02:28:37;18.10;;;8.02;;
44068;SDS011;29738;51.234;5.484;2022-09-12T02:31:10;16.67;;;8.50;;
44068;SDS011;29738;51.234;5.484;2022-09-12T02:39:04;16.77;;;8.80;;
44068;SDS011;29738;51.234;5.484;2022-09-12T02:41:30;21.20;;;9.13;;
44068;SDS011;29738;51.234;5.484;2022-09-12T02:43:56;21.75;;;10.38;;
44068;SDS011;29738;51.234;5.484;2022-09-12T02:46:24;17.17;;;8.25;;
44068;SDS011;29738;51.234;5.484;2022-09-12T02:49:03;20.05;;;10.80;;
44068;SDS011;29738;51.234;5.484;2022-09-12T02:51:29;20.52;;;10.85;;
44068;SDS011;29738;51.234;5.484;2022-09-12T02:53:55;19.40;;;9.45;;
44068;SDS011;29738;51.234;5.484;2022-09-12T02:56:26;19.67;;;9.48;;
44068;SDS011;29738;51.234;5.484;2022-09-12T02:58:53;19.33;;;9.13;;
44068;SDS011;29738;51.234;5.484;2022-09-12T03:04:18;21.77;;;8.77;;
44068;SDS011;29738;51.234;5.484;2022-09-12T03:07:06;19.33;;;8.90;;
44068;SDS011;29738;51.234;5.484;2022-09-12T03:17:45;17.15;;;8.70;;
44068;SDS011;29738;51.234;5.484;2022-09-12T03:23:16;21.67;;;10.73;;
44068;SDS011;29738;51.234;5.484;2022-09-12T03:26:27;21.35;;;10.50;;
44068;SDS011;29738;51.234;5.484;2022-09-12T03:29:07;22.30;;;10.43;;
44068;SDS011;29738;51.234;5.484;2022-09-12T03:31:34;24.88;;;10.20;;
44068;SDS011;29738;51.234;5.484;2022-09-12T03:34:00;20.65;;;8.57;;
44068;SDS011;29738;51.234;5.484;2022-09-12T03:36:27;20.52;;;9.55;;
44068;SDS011;29738;51.234;5.484;2022-09-12T03:38:54;20.50;;;9.90;;
44068;SDS011;29738;51.234;5.484;2022-09-12T03:41:20;21.40;;;9.68;;
44068;SDS011;29738;51.234;5.484;2022-09-12T03:43:46;16.25;;;8.13;;
44068;SDS011;29738;51.234;5.484;2022-09-12T03:46:12;13.77;;;7.85;;
44068;SDS011;29738;51.234;5.484;2022-09-12T03:48:38;16.95;;;8.90;;
44068;SDS011;29738;51.234;5.484;2022-09-12T03:51:06;21.80;;;10.68;;
44068;SDS011;29738;51.234;5.484;2022-09-12T03:53:33;21.05;;;10.32;;
44068;SDS011;29738;51.234;5.484;2022-09-12T03:55:59;20.60;;;10.30;;
44068;SDS011;29738;51.234;5.484;2022-09-12T03:58:30;20.30;;;10.05;;
44068;SDS011;29738;51.234;5.484;2022-09-12T04:00:55;18.95;;;10.02;;
44068;SDS011;29738;51.234;5.484;2022-09-12T04:03:22;20.05;;;10.13;;
44068;SDS011;29738;51.234;5.484;2022-09-12T04:05:47;18.52;;;9.38;;
44068;SDS011;29738;51.234;5.484;2022-09-12T04:08:13;23.90;;;11.70;;
44068;SDS011;29738;51.234;5.484;2022-09-12T04:10:39;22.95;;;11.65;;
44068;SDS011;29738;51.234;5.484;2022-09-12T04:13:06;20.67;;;10.50;;
44068;SDS011;29738;51.234;5.484;2022-09-12T04:15:32;21.85;;;10.73;;
44068;SDS011;29738;51.234;5.484;2022-09-12T04:17:57;22.33;;;11.23;;
44068;SDS011;29738;51.234;5.484;2022-09-12T04:20:23;24.00;;;12.32;;
44068;SDS011;29738;51.234;5.484;2022-09-12T04:22:49;27.92;;;13.77;;
44068;SDS011;29738;51.234;5.484;2022-09-12T04:25:15;29.40;;;14.30;;
44068;SDS011;29738;51.234;5.484;2022-09-12T04:27:41;24.45;;;11.38;;
44068;SDS011;29738;51.234;5.484;2022-09-12T04:30:07;22.35;;;11.05;;
44068;SDS011;29738;51.234;5.484;2022-09-12T04:32:33;28.67;;;13.38;;
44068;SDS011;29738;51.234;5.484;2022-09-12T04:34:59;24.65;;;13.48;;
44068;SDS011;29738;51.234;5.484;2022-09-12T04:37:25;32.08;;;13.75;;
44068;SDS011;29738;51.234;5.484;2022-09-12T04:39:51;31.90;;;13.75;;
44068;SDS011;29738;51.234;5.484;2022-09-12T04:42:21;29.38;;;13.70;;
44068;SDS011;29738;51.234;5.484;2022-09-12T04:44:47;25.10;;;12.18;;
44068;SDS011;29738;51.234;5.484;2022-09-12T04:47:13;24.48;;;12.15;;
44068;SDS011;29738;51.234;5.484;2022-09-12T04:49:39;34.28;;;13.23;;
44068;SDS011;29738;51.234;5.484;2022-09-12T04:52:05;27.20;;;13.25;;
44068;SDS011;29738;51.234;5.484;2022-09-12T04:54:32;21.55;;;11.25;;
44068;SDS011;29738;51.234;5.484;2022-09-12T04:56:58;20.02;;;9.23;;
44068;SDS011;29738;51.234;5.484;2022-09-12T04:59:24;26.67;;;12.32;;
44068;SDS011;29738;51.234;5.484;2022-09-12T05:01:50;22.90;;;12.00;;
44068;SDS011;29738;51.234;5.484;2022-09-12T05:04:16;22.73;;;11.32;;
44068;SDS011;29738;51.234;5.484;2022-09-12T05:06:42;24.42;;;11.10;;
44068;SDS011;29738;51.234;5.484;2022-09-12T05:09:11;24.27;;;11.88;;
44068;SDS011;29738;51.234;5.484;2022-09-12T05:11:39;22.45;;;9.98;;
44068;SDS011;29738;51.234;5.484;2022-09-12T05:14:07;17.77;;;8.85;;
44068;SDS011;29738;51.234;5.484;2022-09-12T05:16:34;26.63;;;14.10;;
44068;SDS011;29738;51.234;5.484;2022-09-12T05:18:59;24.15;;;12.05;;
44068;SDS011;29738;51.234;5.484;2022-09-12T05:21:25;27.58;;;13.38;;
44068;SDS011;29738;51.234;5.484;2022-09-12T05:23:52;25.90;;;14.02;;
44068;SDS011;29738;51.234;5.484;2022-09-12T05:26:21;28.02;;;12.75;;
44068;SDS011;29738;51.234;5.484;2022-09-12T05:28:48;30.15;;;15.25;;
44068;SDS011;29738;51.234;5.484;2022-09-12T05:31:16;29.50;;;16.65;;
44068;SDS011;29738;51.234;5.484;2022-09-12T05:33:50;27.60;;;14.90;;
44068;SDS011;29738;51.234;5.484;2022-09-12T05:36:18;28.15;;;14.98;;
44068;SDS011;29738;51.234;5.484;2022-09-12T05:38:46;28.38;;;15.63;;
44068;SDS011;29738;51.234;5.484;2022-09-12T05:41:16;30.75;;;15.52;;
44068;SDS011;29738;51.234;5.484;2022-09-12T05:43:43;28.67;;;15.27;;
44068;SDS011;29738;51.234;5.484;2022-09-12T05:46:11;22.30;;;11.95;;
44068;SDS011;29738;51.234;5.484;2022-09-12T05:48:38;24.48;;;12.93;;
44068;SDS011;29738;51.234;5.484;2022-09-12T05:51:09;28.52;;;12.98;;
44068;SDS011;29738;51.234;5.484;2022-09-12T05:53:43;24.55;;;13.32;;
44068;SDS011;29738;51.234;5.484;2022-09-12T05:56:12;26.90;;;14.43;;
44068;SDS011;29738;51.234;5.484;2022-09-12T05:58:41;28.75;;;14.52;;
44068;SDS011;29738;51.234;5.484;2022-09-12T06:01:13;27.83;;;14.33;;
44068;SDS011;29738;51.234;5.484;2022-09-12T06:03:43;28.73;;;14.82;;
44068;SDS011;29738;51.234;5.484;2022-09-12T06:06:11;30.97;;;15.63;;
44068;SDS011;29738;51.234;5.484;2022-09-12T06:08:40;27.60;;;13.98;;
44068;SDS011;29738;51.234;5.484;2022-09-12T06:11:07;33.00;;;14.65;;
44068;SDS011;29738;51.234;5.484;2022-09-12T06:13:36;26.20;;;14.60;;
44068;SDS011;29738;51.234;5.484;2022-09-12T06:16:07;28.02;;;14.52;;
44068;SDS011;29738;51.234;5.484;2022-09-12T06:18:35;27.38;;;14.07;;
44068;SDS011;29738;51.234;5.484;2022-09-12T06:21:05;30.40;;;15.90;;
44068;SDS011;29738;51.234;5.484;2022-09-12T06:23:35;30.35;;;14.48;;
44068;SDS011;29738;51.234;5.484;2022-09-12T06:26:03;27.63;;;13.20;;
44068;SDS011;29738;51.234;5.484;2022-09-12T06:28:30;31.60;;;14.65;;
44068;SDS011;29738;51.234;5.484;2022-09-12T06:31:04;30.73;;;15.68;;
44068;SDS011;29738;51.234;5.484;2022-09-12T06:33:36;26.67;;;13.73;;
44068;SDS011;29738;51.234;5.484;2022-09-12T06:38:30;32.28;;;14.98;;
44068;SDS011;29738;51.234;5.484;2022-09-12T06:40:57;28.02;;;14.20;;
44068;SDS011;29738;51.234;5.484;2022-09-12T06:43:24;28.30;;;14.85;;
44068;SDS011;29738;51.234;5.484;2022-09-12T06:45:50;31.85;;;15.75;;
44068;SDS011;29738;51.234;5.484;2022-09-12T06:48:16;28.73;;;14.60;;
44068;SDS011;29738;51.234;5.484;2022-09-12T06:50:42;36.08;;;15.90;;
44068;SDS011;29738;51.234;5.484;2022-09-12T06:53:08;31.63;;;15.80;;
44068;SDS011;29738;51.234;5.484;2022-09-12T06:55:34;29.98;;;15.88;;
44068;SDS011;29738;51.234;5.484;2022-09-12T06:58:00;35.05;;;16.85;;
44068;SDS011;29738;51.234;5.484;2022-09-12T07:00:25;31.38;;;16.48;;
44068;SDS011;29738;51.234;5.484;2022-09-12T07:02:54;35.55;;;17.08;;
44068;SDS011;29738;51.234;5.484;2022-09-12T07:05:21;29.52;;;15.95;;
44068;SDS011;29738;51.234;5.484;2022-09-12T07:07:47;31.08;;;16.10;;
44068;SDS011;29738;51.234;5.484;2022-09-12T07:10:13;32.08;;;16.77;;
44068;SDS011;29738;51.234;5.484;2022-09-12T07:12:39;29.75;;;16.02;;
44068;SDS011;29738;51.234;5.484;2022-09-12T07:15:04;31.83;;;15.95;;
44068;SDS011;29738;51.234;5.484;2022-09-12T07:17:30;32.63;;;15.00;;
44068;SDS011;29738;51.234;5.484;2022-09-12T07:19:56;31.13;;;15.50;;
44068;SDS011;29738;51.234;5.484;2022-09-12T07:22:22;32.65;;;15.52;;
44068;SDS011;29738;51.234;5.484;2022-09-12T07:24:48;32.00;;;15.85;;
44068;SDS011;29738;51.234;5.484;2022-09-12T07:27:14;33.83;;;16.75;;
44068;SDS011;29738;51.234;5.484;2022-09-12T07:29:40;33.40;;;16.55;;
44068;SDS011;29738;51.234;5.484;2022-09-12T07:32:06;34.05;;;17.65;;
44068;SDS011;29738;51.234;5.484;2022-09-12T07:34:32;32.15;;;16.13;;
44068;SDS011;29738;51.234;5.484;2022-09-12T07:36:58;34.38;;;16.63;;
44068;SDS011;29738;51.234;5.484;2022-09-12T07:39:24;35.00;;;16.90;;
44068;SDS011;29738;51.234;5.484;2022-09-12T07:41:49;36.00;;;17.25;;
44068;SDS011;29738;51.234;5.484;2022-09-12T07:44:15;32.05;;;17.92;;
44068;SDS011;29738;51.234;5.484;2022-09-12T07:46:41;33.63;;;16.70;;
44068;SDS011;29738;51.234;5.484;2022-09-12T07:49:07;35.75;;;15.70;;
44068;SDS011;29738;51.234;5.484;2022-09-12T07:51:33;33.53;;;16.30;;
44068;SDS011;29738;51.234;5.484;2022-09-12T07:53:58;31.17;;;15.77;;
44068;SDS011;29738;51.234;5.484;2022-09-12T07:56:25;36.78;;;16.83;;
44068;SDS011;29738;51.234;5.484;2022-09-12T07:58:52;31.30;;;15.68;;
44068;SDS011;29738;51.234;5.484;2022-09-12T08:01:20;32.50;;;14.75;;
44068;SDS011;29738;51.234;5.484;2022-09-12T08:03:53;31.40;;;16.33;;
44068;SDS011;29738;51.234;5.484;2022-09-12T08:08:50;32.60;;;15.80;;
44068;SDS011;29738;51.234;5.484;2022-09-12T08:11:18;31.92;;;16.42;;
44068;SDS011;29738;51.234;5.484;2022-09-12T08:13:44;32.92;;;16.63;;
44068;SDS011;29738;51.234;5.484;2022-09-12T08:16:11;31.05;;;15.52;;
44068;SDS011;29738;51.234;5.484;2022-09-12T08:18:45;37.90;;;16.42;;
44068;SDS011;29738;51.234;5.484;2022-09-12T08:21:22;33.83;;;16.45;;
44068;SDS011;29738;51.234;5.484;2022-09-12T08:23:53;31.73;;;16.17;;
44068;SDS011;29738;51.234;5.484;2022-09-12T08:26:20;30.90;;;15.10;;
44068;SDS011;29738;51.234;5.484;2022-09-12T08:28:47;29.48;;;15.70;;
44068;SDS011;29738;51.234;5.484;2022-09-12T08:31:15;32.65;;;16.48;;
44068;SDS011;29738;51.234;5.484;2022-09-12T08:33:42;31.55;;;15.75;;
44068;SDS011;29738;51.234;5.484;2022-09-12T08:36:09;29.10;;;15.82;;
44068;SDS011;29738;51.234;5.484;2022-09-12T08:38:38;26.13;;;13.55;;
44068;SDS011;29738;51.234;5.484;2022-09-12T08:43:49;27.88;;;14.82;;
44068;SDS011;29738;51.234;5.484;2022-09-12T08:47:34;29.85;;;14.75;;
44068;SDS011;29738;51.234;5.484;2022-09-12T08:52:12;27.48;;;13.80;;
44068;SDS011;29738;51.234;5.484;2022-09-12T08:54:43;25.52;;;13.32;;
44068;SDS011;29738;51.234;5.484;2022-09-12T08:57:13;26.58;;;13.20;;
44068;SDS011;29738;51.234;5.484;2022-09-12T08:59:43;26.10;;;13.30;;
44068;SDS011;29738;51.234;5.484;2022-09-12T09:05:22;22.60;;;11.68;;
44068;SDS011;29738;51.234;5.484;2022-09-12T09:10:48;21.45;;;9.57;;
44068;SDS011;29738;51.234;5.484;2022-09-12T09:16:34;19.75;;;9.60;;
44068;SDS011;29738;51.234;5.484;2022-09-12T09:19:22;19.30;;;9.80;;
44068;SDS011;29738;51.234;5.484;2022-09-12T09:21:57;17.02;;;9.48;;
44068;SDS011;29738;51.234;5.484;2022-09-12T09:24:31;19.13;;;8.70;;
44068;SDS011;29738;51.234;5.484;2022-09-12T09:27:08;15.40;;;8.50;;
44068;SDS011;29738;51.234;5.484;2022-09-12T09:29:46;14.27;;;8.10;;
44068;SDS011;29738;51.234;5.484;2022-09-12T09:32:17;14.80;;;7.53;;
44068;SDS011;29738;51.234;5.484;2022-09-12T09:34:49;15.65;;;7.68;;
44068;SDS011;29738;51.234;5.484;2022-09-12T09:37:19;14.38;;;7.72;;
44068;SDS011;29738;51.234;5.484;2022-09-12T09:42:39;16.30;;;6.97;;
44068;SDS011;29738;51.234;5.484;2022-09-12T09:45:22;13.07;;;7.05;;
44068;SDS011;29738;51.234;5.484;2022-09-12T09:50:23;14.40;;;7.55;;
44068;SDS011;29738;51.234;5.484;2022-09-12T09:52:50;13.93;;;7.07;;
44068;SDS011;29738;51.234;5.484;2022-09-12T09:55:19;18.80;;;7.53;;
44068;SDS011;29738;51.234;5.484;2022-09-12T09:57:49;13.68;;;7.55;;
44068;SDS011;29738;51.234;5.484;2022-09-12T10:05:45;12.50;;;6.75;;
44068;SDS011;29738;51.234;5.484;2022-09-12T10:08:22;11.85;;;6.18;;
44068;SDS011;29738;51.234;5.484;2022-09-12T10:11:04;11.93;;;5.90;;
44068;SDS011;29738;51.234;5.484;2022-09-12T10:13:42;13.77;;;6.70;;
44068;SDS011;29738;51.234;5.484;2022-09-12T10:18:55;10.05;;;5.43;;
44068;SDS011;29738;51.234;5.484;2022-09-12T10:29:33;11.48;;;5.28;;
44068;SDS011;29738;51.234;5.484;2022-09-12T10:32:10;9.95;;;5.65;;
44068;SDS011;29738;51.234;5.484;2022-09-12T10:34:43;9.82;;;5.03;;
44068;SDS011;29738;51.234;5.484;2022-09-12T10:37:16;10.75;;;5.40;;
44068;SDS011;29738;51.234;5.484;2022-09-12T10:39:51;9.25;;;5.53;;
44068;SDS011;29738;51.234;5.484;2022-09-12T10:45:27;7.78;;;4.35;;
44068;SDS011;29738;51.234;5.484;2022-09-12T10:47:58;11.48;;;5.95;;
44068;SDS011;29738;51.234;5.484;2022-09-12T11:00:57;7.72;;;4.40;;
44068;SDS011;29738;51.234;5.484;2022-09-12T11:06:40;9.90;;;4.20;;
44068;SDS011;29738;51.234;5.484;2022-09-12T11:18:13;7.65;;;4.00;;
44068;SDS011;29738;51.234;5.484;2022-09-12T11:20:52;8.43;;;4.05;;
44068;SDS011;29738;51.234;5.484;2022-09-12T11:39:58;8.57;;;4.30;;
44068;SDS011;29738;51.234;5.484;2022-09-12T11:42:48;8.05;;;4.20;;
44068;SDS011;29738;51.234;5.484;2022-09-12T11:45:23;6.82;;;4.05;;
44068;SDS011;29738;51.234;5.484;2022-09-12T11:48:02;7.07;;;3.63;;
44068;SDS011;29738;51.234;5.484;2022-09-12T11:50:31;9.20;;;3.58;;
44068;SDS011;29738;51.234;5.484;2022-09-12T11:53:03;6.72;;;3.80;;
44068;SDS011;29738;51.234;5.484;2022-09-12T11:55:48;8.40;;;3.85;;
44068;SDS011;29738;51.234;5.484;2022-09-12T11:58:29;7.03;;;3.75;;
44068;SDS011;29738;51.234;5.484;2022-09-12T12:01:08;6.18;;;3.20;;
44068;SDS011;29738;51.234;5.484;2022-09-12T12:03:43;6.85;;;3.67;;
44068;SDS011;29738;51.234;5.484;2022-09-12T12:06:18;6.40;;;3.85;;
44068;SDS011;29738;51.234;5.484;2022-09-12T12:08:49;6.13;;;3.33;;
44068;SDS011;29738;51.234;5.484;2022-09-12T12:11:26;6.32;;;3.22;;
44068;SDS011;29738;51.234;5.484;2022-09-12T12:14:03;8.02;;;3.20;;
44068;SDS011;29738;51.234;5.484;2022-09-12T12:16:37;7.97;;;3.42;;
44068;SDS011;29738;51.234;5.484;2022-09-12T12:21:40;7.20;;;3.83;;
44068;SDS011;29738;51.234;5.484;2022-09-12T12:34:27;6.60;;;3.13;;
44068;SDS011;29738;51.234;5.484;2022-09-12T12:36:57;6.38;;;3.45;;
44068;SDS011;29738;51.234;5.484;2022-09-12T12:44:59;7.35;;;3.60;;
44068;SDS011;29738;51.234;5.484;2022-09-12T12:47:27;6.70;;;3.33;;
44068;SDS011;29738;51.234;5.484;2022-09-12T12:55:23;7.43;;;3.47;;
44068;SDS011;29738;51.234;5.484;2022-09-12T12:57:59;6.68;;;3.92;;
44068;SDS011;29738;51.234;5.484;2022-09-12T13:00:34;6.68;;;3.55;;
44068;SDS011;29738;51.234;5.484;2022-09-12T13:05:37;8.48;;;4.10;;
44068;SDS011;29738;51.234;5.484;2022-09-12T13:08:09;8.45;;;3.55;;
44068;SDS011;29738;51.234;5.484;2022-09-12T13:10:51;6.68;;;3.63;;
44068;SDS011;29738;51.234;5.484;2022-09-12T13:13:52;6.72;;;3.90;;
44068;SDS011;29738;51.234;5.484;2022-09-12T13:19:01;7.88;;;3.63;;
44068;SDS011;29738;51.234;5.484;2022-09-12T13:21:29;7.30;;;4.07;;
44068;SDS011;29738;51.234;5.484;2022-09-12T13:24:11;7.00;;;3.58;;
44068;SDS011;29738;51.234;5.484;2022-09-12T13:26:41;5.50;;;3.10;;
44068;SDS011;29738;51.234;5.484;2022-09-12T13:31:41;6.38;;;2.95;;
44068;SDS011;29738;51.234;5.484;2022-09-12T13:34:08;5.80;;;3.05;;
44068;SDS011;29738;51.234;5.484;2022-09-12T13:42:51;5.63;;;2.92;;
44068;SDS011;29738;51.234;5.484;2022-09-12T13:45:21;6.32;;;3.05;;
44068;SDS011;29738;51.234;5.484;2022-09-12T13:48:09;5.40;;;2.80;;
44068;SDS011;29738;51.234;5.484;2022-09-12T13:50:46;6.70;;;2.72;;
44068;SDS011;29738;51.234;5.484;2022-09-12T13:53:18;4.50;;;2.60;;
44068;SDS011;29738;51.234;5.484;2022-09-12T13:55:51;6.07;;;3.17;;
44068;SDS011;29738;51.234;5.484;2022-09-12T13:58:28;6.05;;;3.15;;
44068;SDS011;29738;51.234;5.484;2022-09-12T14:03:30;6.13;;;2.88;;
44068;SDS011;29738;51.234;5.484;2022-09-12T14:06:17;6.05;;;2.78;;
44068;SDS011;29738;51.234;5.484;2022-09-12T14:08:47;7.30;;;2.92;;
44068;SDS011;29738;51.234;5.484;2022-09-12T14:11:23;5.65;;;2.97;;
44068;SDS011;29738;51.234;5.484;2022-09-12T14:13:51;6.10;;;3.10;;
44068;SDS011;29738;51.234;5.484;2022-09-12T14:16:18;5.32;;;2.80;;
44068;SDS011;29738;51.234;5.484;2022-09-12T14:18:47;6.40;;;2.53;;
44068;SDS011;29738;51.234;5.484;2022-09-12T14:23:57;4.82;;;2.50;;
44068;SDS011;29738;51.234;5.484;2022-09-12T14:26:25;5.53;;;2.92;;
44068;SDS011;29738;51.234;5.484;2022-09-12T14:28:57;6.60;;;2.80;;
44068;SDS011;29738;51.234;5.484;2022-09-12T14:31:29;4.80;;;2.15;;
44068;SDS011;29738;51.234;5.484;2022-09-12T14:34:17;4.80;;;2.50;;
44068;SDS011;29738;51.234;5.484;2022-09-12T14:39:15;4.75;;;2.50;;
44068;SDS011;29738;51.234;5.484;2022-09-12T14:41:46;4.22;;;2.15;;
44068;SDS011;29738;51.234;5.484;2022-09-12T14:44:15;5.32;;;2.40;;
44068;SDS011;29738;51.234;5.484;2022-09-12T14:46:48;5.32;;;2.28;;
44068;SDS011;29738;51.234;5.484;2022-09-12T14:52:00;5.85;;;2.17;;
44068;SDS011;29738;51.234;5.484;2022-09-12T14:56:59;5.47;;;2.22;;
44068;SDS011;29738;51.234;5.484;2022-09-12T15:04:47;5.28;;;2.42;;
44068;SDS011;29738;51.234;5.484;2022-09-12T15:09:43;4.78;;;2.40;;
44068;SDS011;29738;51.234;5.484;2022-09-12T15:12:09;4.70;;;2.22;;
44068;SDS011;29738;51.234;5.484;2022-09-12T15:14:35;4.53;;;2.20;;
44068;SDS011;29738;51.234;5.484;2022-09-12T15:17:01;4.82;;;2.13;;
44068;SDS011;29738;51.234;5.484;2022-09-12T15:19:27;5.65;;;2.50;;
44068;SDS011;29738;51.234;5.484;2022-09-12T15:21:52;4.20;;;1.95;;
44068;SDS011;29738;51.234;5.484;2022-09-12T15:24:18;6.03;;;2.20;;
44068;SDS011;29738;51.234;5.484;2022-09-12T15:26:44;6.68;;;2.60;;
44068;SDS011;29738;51.234;5.484;2022-09-12T15:29:10;4.45;;;1.80;;
44068;SDS011;29738;51.234;5.484;2022-09-12T15:31:35;4.00;;;1.90;;
44068;SDS011;29738;51.234;5.484;2022-09-12T15:34:03;4.75;;;1.95;;
44068;SDS011;29738;51.234;5.484;2022-09-12T15:36:29;4.47;;;2.05;;
44068;SDS011;29738;51.234;5.484;2022-09-12T15:38:55;5.10;;;2.60;;
44068;SDS011;29738;51.234;5.484;2022-09-12T15:41:22;4.38;;;2.00;;
44068;SDS011;29738;51.234;5.484;2022-09-12T15:43:52;4.73;;;2.00;;
44068;SDS011;29738;51.234;5.484;2022-09-12T15:46:18;4.70;;;2.63;;
44068;SDS011;29738;51.234;5.484;2022-09-12T15:48:44;6.43;;;2.08;;
44068;SDS011;29738;51.234;5.484;2022-09-12T15:51:10;4.50;;;2.33;;
44068;SDS011;29738;51.234;5.484;2022-09-12T15:53:38;4.70;;;2.22;;
44068;SDS011;29738;51.234;5.484;2022-09-12T15:56:03;5.40;;;2.30;;
44068;SDS011;29738;51.234;5.484;2022-09-12T15:58:29;4.40;;;2.38;;
44068;SDS011;29738;51.234;5.484;2022-09-12T16:00:55;4.72;;;2.10;;
44068;SDS011;29738;51.234;5.484;2022-09-12T16:03:22;4.68;;;2.30;;
44068;SDS011;29738;51.234;5.484;2022-09-12T16:05:57;4.18;;;1.98;;
44068;SDS011;29738;51.234;5.484;2022-09-12T16:08:26;4.35;;;2.10;;
44068;SDS011;29738;51.234;5.484;2022-09-12T16:10:54;4.65;;;2.38;;
44068;SDS011;29738;51.234;5.484;2022-09-12T16:13:28;5.70;;;2.30;;
44068;SDS011;29738;51.234;5.484;2022-09-12T16:15:57;3.90;;;1.92;;
44068;SDS011;29738;51.234;5.484;2022-09-12T16:18:25;4.82;;;2.20;;
44068;SDS011;29738;51.234;5.484;2022-09-12T16:20:52;4.15;;;1.80;;
44068;SDS011;29738;51.234;5.484;2022-09-12T16:23:18;4.47;;;1.98;;
44068;SDS011;29738;51.234;5.484;2022-09-12T16:25:44;4.35;;;1.85;;
44068;SDS011;29738;51.234;5.484;2022-09-12T16:28:19;5.78;;;1.95;;
44068;SDS011;29738;51.234;5.484;2022-09-12T16:30:53;4.60;;;2.17;;
44068;SDS011;29738;51.234;5.484;2022-09-12T16:33:20;4.40;;;2.30;;
44068;SDS011;29738;51.234;5.484;2022-09-12T16:35:46;4.20;;;1.92;;
44068;SDS011;29738;51.234;5.484;2022-09-12T16:38:11;5.03;;;2.00;;
44068;SDS011;29738;51.234;5.484;2022-09-12T16:40:40;4.95;;;2.03;;
44068;SDS011;29738;51.234;5.484;2022-09-12T16:43:05;5.38;;;1.90;;
44068;SDS011;29738;51.234;5.484;2022-09-12T16:45:31;4.43;;;2.33;;
44068;SDS011;29738;51.234;5.484;2022-09-12T16:47:57;4.60;;;2.30;;
44068;SDS011;29738;51.234;5.484;2022-09-12T16:50:22;5.43;;;2.00;;
44068;SDS011;29738;51.234;5.484;2022-09-12T16:52:48;5.22;;;2.30;;
44068;SDS011;29738;51.234;5.484;2022-09-12T16:55:14;4.68;;;2.15;;
44068;SDS011;29738;51.234;5.484;2022-09-12T16:57:40;4.10;;;2.03;;
44068;SDS011;29738;51.234;5.484;2022-09-12T17:00:06;4.72;;;2.22;;
44068;SDS011;29738;51.234;5.484;2022-09-12T17:02:32;4.20;;;2.00;;
44068;SDS011;29738;51.234;5.484;2022-09-12T17:04:58;4.55;;;2.00;;
44068;SDS011;29738;51.234;5.484;2022-09-12T17:07:24;4.95;;;2.08;;
44068;SDS011;29738;51.234;5.484;2022-09-12T17:09:50;4.65;;;2.10;;
44068;SDS011;29738;51.234;5.484;2022-09-12T17:12:16;8.73;;;3.70;;
44068;SDS011;29738;51.234;5.484;2022-09-12T17:14:41;5.25;;;2.50;;
44068;SDS011;29738;51.234;5.484;2022-09-12T17:17:07;4.47;;;2.20;;
44068;SDS011;29738;51.234;5.484;2022-09-12T17:19:33;5.10;;;2.20;;
44068;SDS011;29738;51.234;5.484;2022-09-12T17:21:59;5.65;;;2.30;;
44068;SDS011;29738;51.234;5.484;2022-09-12T17:24:25;4.55;;;2.35;;
44068;SDS011;29738;51.234;5.484;2022-09-12T17:26:51;6.45;;;2.00;;
44068;SDS011;29738;51.234;5.484;2022-09-12T17:29:17;4.15;;;2.08;;
44068;SDS011;29738;51.234;5.484;2022-09-12T17:31:43;5.57;;;2.08;;
44068;SDS011;29738;51.234;5.484;2022-09-12T17:34:09;3.83;;;1.80;;
44068;SDS011;29738;51.234;5.484;2022-09-12T17:36:38;5.32;;;2.25;;
44068;SDS011;29738;51.234;5.484;2022-09-12T17:39:04;5.88;;;2.35;;
44068;SDS011;29738;51.234;5.484;2022-09-12T17:41:30;5.43;;;2.15;;
44068;SDS011;29738;51.234;5.484;2022-09-12T17:43:57;4.57;;;2.20;;
44068;SDS011;29738;51.234;5.484;2022-09-12T17:46:29;4.88;;;2.20;;
44068;SDS011;29738;51.234;5.484;2022-09-12T17:49:00;4.38;;;2.20;;
44068;SDS011;29738;51.234;5.484;2022-09-12T17:51:27;5.25;;;2.38;;
44068;SDS011;29738;51.234;5.484;2022-09-12T17:54:02;4.65;;;2.10;;
44068;SDS011;29738;51.234;5.484;2022-09-12T17:56:30;4.53;;;2.10;;
44068;SDS011;29738;51.234;5.484;2022-09-12T17:58:57;5.32;;;2.53;;
44068;SDS011;29738;51.234;5.484;2022-09-12T18:01:24;5.68;;;2.58;;